Time,TemperatureF,DewpointF,PressureIn,WindDirection,WindDirectionDegrees,WindSpeedMPH,WindSpeedGustMPH,Humidity,HourlyPrecipIn,Conditions,Clouds,dailyrainin,SoftwareType,DateUTC
2013-05-12 00:38:00,36.4,31.1,29.63,SSW,203,10.1,10.1,81,0.00,,,0.00,WUHU21623XXSP,2013-05-12 04:38:00,
2013-05-12 01:38:00,36.4,31.4,29.64,South,180,5.8,5.8,82,0.00,,,0.00,WUHU21623XXSP,2013-05-12 05:38:00,
2013-05-12 02:38:00,36.3,31.0,29.62,SSE,158,2.5,2.5,81,0.00,,,0.00,WUHU21623XXSP,2013-05-12 06:38:00,
2013-05-12 03:38:00,35.7,29.8,29.62,NW,315,5.1,5.1,79,0.00,,,0.00,WUHU21623XXSP,2013-05-12 07:38:00,
2013-05-12 04:38:00,35.5,29.3,29.61,WSW,248,1.8,1.8,78,0.00,,,0.00,WUHU21623XXSP,2013-05-12 08:38:00,
2013-05-12 05:38:00,34.6,28.8,29.62,West,270,2.5,2.5,79,0.00,,,0.00,WUHU21623XXSP,2013-05-12 09:38:00,
2013-05-12 06:38:00,35.2,29.7,29.63,SE,135,6.5,6.5,80,0.00,,,0.00,WUHU21623XXSP,2013-05-12 10:38:00,
2013-05-12 07:38:00,37.0,30.5,29.65,West,270,7.4,7.4,77,0.00,,,0.00,WUHU21623XXSP,2013-05-12 11:38:00,
2013-05-12 08:38:00,40.9,32.3,29.65,WNW,293,7.4,7.4,71,0.00,,,0.00,WUHU21623XXSP,2013-05-12 12:38:00,
2013-05-12 09:38:00,42.9,32.0,29.68,SW,225,2.2,2.2,65,0.00,,,0.00,WUHU21623XXSP,2013-05-12 13:38:00,
2013-05-12 10:38:00,45.6,33.4,29.68,West,270,6.3,6.3,62,0.00,,,0.00,WUHU21623XXSP,2013-05-12 14:38:00,
2013-05-12 11:38:00,46.2,34.0,29.69,NW,315,2.2,2.2,62,0.00,,,0.00,WUHU21623XXSP,2013-05-12 15:38:00,
2013-05-12 12:16:00,46.0,31.7,29.70,WSW,247,7.2,7.2,57,0.00,,,0.00,WUHU21623XXSP,2013-05-12 16:16:00,
2013-05-12 12:22:00,46.3,31.9,29.70,WNW,292,12.1,12.1,57,0.00,,,0.00,WUHU21623XXSP,2013-05-12 16:22:00,
2013-05-12 12:27:00,46.5,31.7,29.70,WNW,292,4.5,12.1,56,0.00,,,0.00,WUHU21623XXSP,2013-05-12 16:27:00,
2013-05-12 12:32:00,46.9,32.5,29.70,West,270,8.5,8.5,57,0.00,,,0.00,WUHU21623XXSP,2013-05-12 16:32:00,
2013-05-12 12:37:00,47.2,32.3,29.70,WSW,247,0.0,8.5,56,0.00,,,0.00,WUHU21623XXSP,2013-05-12 16:37:00,
2013-05-12 12:42:00,47.2,33.2,29.71,NW,315,0.0,2.9,58,0.00,,,0.00,WUHU21623XXSP,2013-05-12 16:42:00,
2013-05-12 12:47:00,47.2,33.7,29.70,West,270,7.4,7.4,59,0.00,,,0.00,WUHU21623XXSP,2013-05-12 16:47:00,
2013-05-12 12:52:00,48.0,34.0,29.71,NW,315,4.7,7.4,58,0.00,,,0.00,WUHU21623XXSP,2013-05-12 16:52:00,
2013-05-12 12:57:00,47.8,32.0,29.71,WNW,292,15.9,15.9,54,0.00,,,0.00,WUHU21623XXSP,2013-05-12 16:57:00,
2013-05-12 13:02:00,47.4,32.1,29.71,WNW,292,6.3,15.9,55,0.00,,,0.00,WUHU21623XXSP,2013-05-12 17:02:00,
2013-05-12 13:07:00,47.1,31.3,29.71,NW,315,8.1,8.1,54,0.00,,,0.00,WUHU21623XXSP,2013-05-12 17:07:00,
2013-05-12 13:12:00,47.1,30.9,29.71,WSW,247,16.6,16.6,53,0.00,,,0.00,WUHU21623XXSP,2013-05-12 17:12:00,
2013-05-12 13:17:00,47.2,31.4,29.71,West,270,6.7,16.6,54,0.00,,,0.00,WUHU21623XXSP,2013-05-12 17:17:00,
2013-05-12 13:22:00,47.2,31.4,29.71,WSW,247,8.5,8.5,54,0.00,,,0.00,WUHU21623XXSP,2013-05-12 17:22:00,
2013-05-12 13:27:00,47.2,30.9,29.72,NW,315,5.8,8.5,53,0.00,,,0.00,WUHU21623XXSP,2013-05-12 17:27:00,
2013-05-12 13:32:00,46.9,30.7,29.72,WNW,292,11.9,11.9,53,0.00,,,0.00,WUHU21623XXSP,2013-05-12 17:32:00,
2013-05-12 13:37:00,46.5,30.8,29.72,NW,315,11.4,11.9,54,0.00,,,0.00,WUHU21623XXSP,2013-05-12 17:37:00,
2013-05-12 13:44:00,46.7,31.9,29.73,WNW,292,6.5,11.4,56,0.00,,,0.00,WUHU21623XXSP,2013-05-12 17:44:00,
2013-05-12 13:49:00,46.9,31.6,29.73,NW,315,20.6,20.6,55,0.00,,,0.00,WUHU21623XXSP,2013-05-12 17:49:00,
2013-05-12 13:54:00,47.1,31.3,29.73,WNW,292,12.1,20.6,54,0.00,,,0.00,WUHU21623XXSP,2013-05-12 17:54:00,
2013-05-12 13:59:00,46.9,31.1,29.73,WNW,292,11.4,13.2,54,0.00,,,0.00,WUHU21623XXSP,2013-05-12 17:59:00,
2013-05-12 14:05:00,46.5,31.2,29.74,North,0,8.9,11.4,55,0.00,,,0.00,WUHU21623XXSP,2013-05-12 18:05:00,
2013-05-12 14:11:00,46.0,30.3,29.75,WNW,292,6.0,8.9,54,0.00,,,0.00,WUHU21623XXSP,2013-05-12 18:11:00,
2013-05-12 14:16:00,45.8,30.1,29.75,WSW,247,8.1,8.1,54,0.00,,,0.00,WUHU21623XXSP,2013-05-12 18:16:00,
2013-05-12 14:21:00,45.4,29.7,29.74,WNW,292,7.2,8.1,54,0.00,,,0.00,WUHU21623XXSP,2013-05-12 18:21:00,
2013-05-12 14:26:00,44.7,29.5,29.75,West,270,4.3,7.2,55,0.00,,,0.00,WUHU21623XXSP,2013-05-12 18:26:00,
2013-05-12 14:31:00,44.7,29.5,29.75,NNW,337,8.3,8.3,55,0.00,,,0.00,WUHU21623XXSP,2013-05-12 18:31:00,
2013-05-12 14:36:00,44.7,30.0,29.75,NW,315,8.5,8.5,56,0.00,,,0.00,WUHU21623XXSP,2013-05-12 18:36:00,
2013-05-12 14:41:00,44.4,29.3,29.75,SW,225,8.7,8.7,55,0.00,,,0.00,WUHU21623XXSP,2013-05-12 18:41:00,
2013-05-12 14:46:00,44.2,29.1,29.76,NW,315,7.2,8.7,55,0.00,,,0.00,WUHU21623XXSP,2013-05-12 18:46:00,
2013-05-12 14:51:00,44.2,29.1,29.76,West,270,8.1,8.1,55,0.00,,,0.00,WUHU21623XXSP,2013-05-12 18:51:00,
2013-05-12 14:56:00,44.2,29.1,29.76,NW,315,6.5,8.1,55,0.00,,,0.00,WUHU21623XXSP,2013-05-12 18:56:00,
2013-05-12 15:01:00,44.0,28.9,29.76,West,270,10.5,10.5,55,0.00,,,0.00,WUHU21623XXSP,2013-05-12 19:01:00,
2013-05-12 15:06:00,43.6,28.1,29.76,West,270,6.7,10.5,54,0.00,,,0.00,WUHU21623XXSP,2013-05-12 19:06:00,
2013-05-12 15:11:00,42.9,27.9,29.76,WNW,292,11.6,11.6,55,0.00,,,0.00,WUHU21623XXSP,2013-05-12 19:11:00,
2013-05-12 15:16:00,42.7,27.7,29.77,WNW,292,4.7,11.6,55,0.00,,,0.00,WUHU21623XXSP,2013-05-12 19:16:00,
2013-05-12 15:22:00,42.6,27.1,29.78,NW,315,9.6,9.6,54,0.00,,,0.00,WUHU21623XXSP,2013-05-12 19:22:00,
2013-05-12 15:27:00,42.4,27.4,29.77,West,270,4.5,9.6,55,0.00,,,0.00,WUHU21623XXSP,2013-05-12 19:27:00,
2013-05-12 15:32:00,42.4,27.4,29.77,West,270,0.0,4.5,55,0.00,,,0.00,WUHU21623XXSP,2013-05-12 19:32:00,
2013-05-12 15:37:00,42.2,27.2,29.78,NW,315,19.7,19.7,55,0.00,,,0.00,WUHU21623XXSP,2013-05-12 19:37:00,
2013-05-12 15:42:00,42.0,27.0,29.78,NNW,337,7.8,19.7,55,0.00,,,0.00,WUHU21623XXSP,2013-05-12 19:42:00,
2013-05-12 15:47:00,42.2,27.2,29.77,NW,315,9.2,9.2,55,0.00,,,0.00,WUHU21623XXSP,2013-05-12 19:47:00,
2013-05-12 15:52:00,42.0,27.0,29.78,West,270,6.5,9.2,55,0.00,,,0.00,WUHU21623XXSP,2013-05-12 19:52:00,
2013-05-12 15:58:00,41.7,26.7,29.78,NNW,337,7.2,7.2,55,0.00,,,0.00,WUHU21623XXSP,2013-05-12 19:58:00,
2013-05-12 16:03:00,41.8,26.8,29.78,NW,315,3.4,7.2,55,0.00,,,0.00,WUHU21623XXSP,2013-05-12 20:03:00,
2013-05-12 16:08:00,42.2,27.2,29.78,NNW,337,5.4,5.4,55,0.00,,,0.00,WUHU21623XXSP,2013-05-12 20:08:00,
2013-05-12 16:13:00,42.2,26.7,29.78,WNW,292,10.5,10.5,54,0.00,,,0.00,WUHU21623XXSP,2013-05-12 20:13:00,
2013-05-12 16:18:00,42.6,27.1,29.78,NW,315,7.4,10.5,54,0.00,,,0.00,WUHU21623XXSP,2013-05-12 20:18:00,
2013-05-12 16:24:00,42.9,27.4,29.78,NNW,337,7.2,7.4,54,0.00,,,0.00,WUHU21623XXSP,2013-05-12 20:24:00,
2013-05-12 16:29:00,42.9,26.9,29.78,WNW,292,10.5,10.5,53,0.00,,,0.00,WUHU21623XXSP,2013-05-12 20:29:00,
2013-05-12 16:34:00,42.7,26.7,29.78,West,270,0.0,10.5,53,0.00,,,0.00,WUHU21623XXSP,2013-05-12 20:34:00,
2013-05-12 16:39:00,42.9,26.9,29.78,NW,315,8.7,8.7,53,0.00,,,0.00,WUHU21623XXSP,2013-05-12 20:39:00,
2013-05-12 16:52:00,42.9,27.4,29.78,WNW,292,6.5,6.5,54,0.00,,,0.00,WUHU21623XXSP,2013-05-12 20:52:00,
2013-05-12 16:57:00,43.1,27.6,29.78,NNW,337,7.6,7.6,54,0.00,,,0.00,WUHU21623XXSP,2013-05-12 20:57:00,
2013-05-12 17:02:00,43.5,28.0,29.78,WNW,292,9.6,9.6,54,0.00,,,0.00,WUHU21623XXSP,2013-05-12 21:02:00,
2013-05-12 17:09:00,43.6,27.1,29.79,WSW,247,0.0,9.6,52,0.00,,,0.00,WUHU21623XXSP,2013-05-12 21:09:00,
2013-05-12 17:14:00,43.3,27.3,29.79,WSW,247,9.8,9.8,53,0.00,,,0.00,WUHU21623XXSP,2013-05-12 21:14:00,
2013-05-12 17:19:00,43.1,27.1,29.79,WSW,247,4.5,9.8,53,0.00,,,0.00,WUHU21623XXSP,2013-05-12 21:19:00,
2013-05-12 17:24:00,42.7,27.2,29.80,West,270,5.8,9.6,54,0.00,,,0.00,WUHU21623XXSP,2013-05-12 21:24:00,
2013-05-12 17:29:00,42.6,27.1,29.79,WNW,292,7.4,9.6,54,0.00,,,0.00,WUHU21623XXSP,2013-05-12 21:29:00,
2013-05-12 17:34:00,42.2,26.7,29.80,NW,315,6.0,7.4,54,0.00,,,0.00,WUHU21623XXSP,2013-05-12 21:34:00,
2013-05-12 17:39:00,42.0,27.0,29.80,WNW,292,4.3,6.0,55,0.00,,,0.00,WUHU21623XXSP,2013-05-12 21:39:00,
2013-05-12 17:44:00,42.0,27.0,29.80,NNE,22,6.7,6.7,55,0.00,,,0.00,WUHU21623XXSP,2013-05-12 21:44:00,
2013-05-12 17:49:00,42.0,27.0,29.80,NNW,337,6.0,6.7,55,0.00,,,0.00,WUHU21623XXSP,2013-05-12 21:49:00,
2013-05-12 17:54:00,42.0,26.6,29.80,NNW,337,8.1,8.1,54,0.00,,,0.00,WUHU21623XXSP,2013-05-12 21:54:00,
2013-05-12 17:59:00,41.8,26.4,29.80,NNW,337,8.1,8.1,54,0.00,,,0.00,WUHU21623XXSP,2013-05-12 21:59:00,
2013-05-12 18:04:00,41.8,26.4,29.81,WNW,292,4.5,8.1,54,0.00,,,0.00,WUHU21623XXSP,2013-05-12 22:04:00,
2013-05-12 18:09:00,41.1,25.7,29.81,NNW,337,6.3,14.3,54,0.00,,,0.00,WUHU21623XXSP,2013-05-12 22:09:00,
2013-05-12 18:14:00,40.9,26.0,29.81,NW,315,7.8,14.3,55,0.00,,,0.00,WUHU21623XXSP,2013-05-12 22:14:00,
2013-05-12 18:19:00,40.8,25.9,29.81,NNW,337,8.3,8.3,55,0.00,,,0.00,WUHU21623XXSP,2013-05-12 22:19:00,
2013-05-12 18:24:00,40.6,26.2,29.81,West,270,0.0,8.3,56,0.00,,,0.00,WUHU21623XXSP,2013-05-12 22:24:00,
2013-05-12 18:29:00,40.6,26.2,29.81,West,270,0.0,7.6,56,0.00,,,0.00,WUHU21623XXSP,2013-05-12 22:29:00,
2013-05-12 18:34:00,40.6,25.7,29.81,WNW,292,3.4,3.4,55,0.00,,,0.00,WUHU21623XXSP,2013-05-12 22:34:00,
2013-05-12 18:39:00,40.4,26.0,29.81,North,0,12.8,12.8,56,0.00,,,0.00,WUHU21623XXSP,2013-05-12 22:39:00,
2013-05-12 18:44:00,40.4,26.0,29.82,NNW,337,12.5,12.8,56,0.00,,,0.00,WUHU21623XXSP,2013-05-12 22:44:00,
2013-05-12 18:49:00,40.2,25.8,29.82,NNW,337,6.5,12.5,56,0.00,,,0.00,WUHU21623XXSP,2013-05-12 22:49:00,
2013-05-12 18:54:00,40.0,25.6,29.82,NW,315,7.4,7.4,56,0.00,,,0.00,WUHU21623XXSP,2013-05-12 22:54:00,
2013-05-12 18:59:00,40.2,25.8,29.82,NNW,337,0.0,7.4,56,0.00,,,0.00,WUHU21623XXSP,2013-05-12 22:59:00,
2013-05-12 19:04:00,40.0,25.1,29.82,WNW,292,0.0,2.5,55,0.00,,,0.00,WUHU21623XXSP,2013-05-12 23:04:00,
2013-05-12 19:09:00,40.0,25.1,29.82,North,0,10.7,10.7,55,0.00,,,0.00,WUHU21623XXSP,2013-05-12 23:09:00,
2013-05-12 19:14:00,40.0,25.1,29.82,WNW,292,4.0,10.7,55,0.00,,,0.00,WUHU21623XXSP,2013-05-12 23:14:00,
2013-05-12 19:19:00,39.9,24.6,29.82,NW,315,13.6,13.6,54,0.00,,,0.00,WUHU21623XXSP,2013-05-12 23:19:00,
2013-05-12 19:24:00,39.5,24.2,29.82,NW,315,7.8,13.6,54,0.00,,,0.00,WUHU21623XXSP,2013-05-12 23:24:00,
2013-05-12 19:29:00,39.3,24.5,29.82,West,270,6.9,13.6,55,0.00,,,0.00,WUHU21623XXSP,2013-05-12 23:29:00,
2013-05-12 19:37:00,39.3,24.9,29.83,West,270,6.9,6.9,56,0.00,,,0.00,WUHU21623XXSP,2013-05-12 23:37:00,
2013-05-12 19:42:00,39.3,24.9,29.83,NNW,337,5.8,6.9,56,0.00,,,0.00,WUHU21623XXSP,2013-05-12 23:42:00,
2013-05-12 19:47:00,39.3,24.5,29.83,WNW,292,6.9,6.9,55,0.00,,,0.00,WUHU21623XXSP,2013-05-12 23:47:00,
2013-05-12 19:52:00,39.5,24.2,29.83,SW,225,6.0,6.9,54,0.00,,,0.00,WUHU21623XXSP,2013-05-12 23:52:00,
2013-05-12 19:57:00,39.5,24.2,29.83,NW,315,4.5,6.0,54,0.00,,,0.00,WUHU21623XXSP,2013-05-12 23:57:00,
2013-05-12 20:02:00,39.3,24.0,29.83,NNW,337,10.1,10.1,54,0.00,,,0.00,WUHU21623XXSP,2013-05-13 00:02:00,
2013-05-12 20:07:00,39.3,24.0,29.83,NW,315,7.6,10.1,54,0.00,,,0.00,WUHU21623XXSP,2013-05-13 00:07:00,
2013-05-12 20:13:00,39.1,23.9,29.83,West,270,0.0,7.6,54,0.00,,,0.00,WUHU21623XXSP,2013-05-13 00:13:00,
2013-05-12 20:18:00,38.8,23.6,29.83,NNW,337,8.5,8.5,54,0.00,,,0.00,WUHU21623XXSP,2013-05-13 00:18:00,
2013-05-12 20:23:00,38.8,23.6,29.84,West,270,6.9,8.5,54,0.00,,,0.00,WUHU21623XXSP,2013-05-13 00:23:00,
2013-05-12 20:28:00,38.4,23.2,29.84,NW,315,1.3,10.3,54,0.00,,,0.00,WUHU21623XXSP,2013-05-13 00:28:00,
2013-05-12 20:33:00,38.4,23.2,29.84,NNW,337,6.3,10.3,54,0.00,,,0.00,WUHU21623XXSP,2013-05-13 00:33:00,
2013-05-12 20:38:00,38.2,23.5,29.85,NW,315,11.6,11.6,55,0.00,,,0.00,WUHU21623XXSP,2013-05-13 00:38:00,
2013-05-12 20:46:00,37.9,23.2,29.84,NNW,337,9.4,15.0,55,0.00,,,0.00,WUHU21623XXSP,2013-05-13 00:46:00,
2013-05-12 20:51:00,37.5,22.8,29.85,NNW,337,2.7,9.4,55,0.00,,,0.00,WUHU21623XXSP,2013-05-13 00:51:00,
2013-05-12 20:56:00,37.5,22.8,29.84,NNW,337,4.0,4.0,55,0.00,,,0.00,WUHU21623XXSP,2013-05-13 00:56:00,
2013-05-12 21:00:00,37.3,23.1,29.85,North,0,8.9,8.9,56,0.00,,,0.00,WUHU21623XXSP,2013-05-13 01:00:00,
2013-05-12 21:11:00,37.2,23.0,29.85,NNE,22,5.8,5.8,56,0.00,,,0.00,WUHU21623XXSP,2013-05-13 01:11:00,
2013-05-12 21:16:00,37.0,23.2,29.85,NNW,337,0.0,5.8,57,0.00,,,0.00,WUHU21623XXSP,2013-05-13 01:16:00,
2013-05-12 21:21:00,37.0,23.2,29.85,NNW,337,0.0,0.0,57,0.00,,,0.00,WUHU21623XXSP,2013-05-13 01:21:00,
2013-05-12 21:30:00,36.4,23.1,29.85,North,0,0.0,0.0,58,0.00,,,0.00,WUHU21623XXSP,2013-05-13 01:30:00,
2013-05-12 21:35:00,36.3,23.0,29.86,NNW,337,0.0,0.0,58,0.00,,,0.00,WUHU21623XXSP,2013-05-13 01:35:00,
2013-05-12 21:40:00,36.1,23.2,29.85,NNW,337,0.0,0.0,59,0.00,,,0.00,WUHU21623XXSP,2013-05-13 01:40:00,
2013-05-12 21:45:00,35.9,23.0,29.86,NNW,337,0.0,0.0,59,0.00,,,0.00,WUHU21623XXSP,2013-05-13 01:45:00,
2013-05-12 21:50:00,35.7,22.8,29.86,NNW,337,0.0,0.0,59,0.00,,,0.00,WUHU21623XXSP,2013-05-13 01:50:00,
2013-05-12 21:58:00,35.5,23.0,29.86,WNW,292,0.0,0.0,60,0.00,,,0.00,WUHU21623XXSP,2013-05-13 01:58:00,
2013-05-12 22:03:00,35.2,23.2,29.86,West,270,0.0,0.0,61,0.00,,,0.00,WUHU21623XXSP,2013-05-13 02:03:00,
2013-05-12 22:08:00,35.2,23.2,29.86,West,270,0.0,0.0,61,0.00,,,0.00,WUHU21623XXSP,2013-05-13 02:08:00,
2013-05-12 22:13:00,34.8,22.8,29.87,West,270,0.0,0.0,61,0.00,,,0.00,WUHU21623XXSP,2013-05-13 02:13:00,
2013-05-12 22:18:00,34.8,23.2,29.86,WNW,292,0.0,0.0,62,0.00,,,0.00,WUHU21623XXSP,2013-05-13 02:18:00,
2013-05-12 22:23:00,34.6,23.4,29.86,WNW,292,0.0,0.0,63,0.00,,,0.00,WUHU21623XXSP,2013-05-13 02:23:00,
2013-05-12 22:30:00,33.9,23.1,29.86,WNW,292,0.0,0.0,64,0.00,,,0.00,WUHU21623XXSP,2013-05-13 02:30:00,
2013-05-12 22:35:00,33.9,23.1,29.86,WNW,292,0.0,0.0,64,0.00,,,0.00,WUHU21623XXSP,2013-05-13 02:35:00,
2013-05-12 22:40:00,33.9,23.1,29.86,WNW,292,0.0,0.0,64,0.00,,,0.00,WUHU21623XXSP,2013-05-13 02:40:00,
2013-05-12 22:45:00,33.7,23.3,29.86,NW,315,0.0,0.0,65,0.00,,,0.00,WUHU21623XXSP,2013-05-13 02:45:00,
2013-05-12 22:50:00,33.7,23.3,29.87,NW,315,0.0,0.0,65,0.00,,,0.00,WUHU21623XXSP,2013-05-13 02:50:00,
2013-05-12 22:56:00,33.6,23.2,29.87,West,270,0.0,0.0,65,0.00,,,0.00,WUHU21623XXSP,2013-05-13 02:56:00,
2013-05-12 23:02:00,33.6,23.2,29.87,West,270,0.0,0.0,65,0.00,,,0.00,WUHU21623XXSP,2013-05-13 03:02:00,
2013-05-12 23:07:00,33.4,23.3,29.87,West,270,0.0,0.0,66,0.00,,,0.00,WUHU21623XXSP,2013-05-13 03:07:00,
2013-05-12 23:12:00,33.4,23.3,29.87,West,270,0.0,0.0,66,0.00,,,0.00,WUHU21623XXSP,2013-05-13 03:12:00,
2013-05-12 23:17:00,33.4,23.3,29.88,West,270,0.0,0.0,66,0.00,,,0.00,WUHU21623XXSP,2013-05-13 03:17:00,
2013-05-12 23:22:00,33.4,23.3,29.87,West,270,0.0,0.0,66,0.00,,,0.00,WUHU21623XXSP,2013-05-13 03:22:00,
2013-05-12 23:27:00,33.2,23.1,29.87,West,270,0.0,0.0,66,0.00,,,0.00,WUHU21623XXSP,2013-05-13 03:27:00,
2013-05-12 23:32:00,33.0,22.9,29.88,NW,315,0.0,0.0,66,0.00,,,0.00,WUHU21623XXSP,2013-05-13 03:32:00,
2013-05-12 23:37:00,33.0,23.3,29.87,NW,315,0.0,0.0,67,0.00,,,0.00,WUHU21623XXSP,2013-05-13 03:37:00,
2013-05-12 23:42:00,32.8,23.1,29.87,NNW,337,2.2,2.2,67,0.00,,,0.00,WUHU21623XXSP,2013-05-13 03:42:00,
2013-05-12 23:47:00,32.8,23.1,29.87,West,270,0.0,2.2,67,0.00,,,0.00,WUHU21623XXSP,2013-05-13 03:47:00,
2013-05-12 23:52:00,32.8,23.1,29.87,WSW,247,0.0,0.0,67,0.00,,,0.00,WUHU21623XXSP,2013-05-13 03:52:00,